Terminal Aerodrome Forecast
Issued by NWS Detroit/Pontiac, MI

Home | Current Version | Previous Version | Text Only | Print | Product List | Glossary On
Versions: 1 2 3 4 5 6 7 8 9 10 11 12 13 14 15 16 17 18
000
FTUS43 KDTX 011123
TAFFNT
TAF
KFNT 011123Z 0112/0212 36012G22KT P6SM OVC022
     FM011500 36015G25KT P6SM BKN030
     FM012100 36013KT P6SM SCT035
     FM012300 33004KT P6SM SKC=

USA.gov is the U.S. government's official web portal to all federal, state and local government web resources and services.